createdAt,value
2022-11-12T00:02:13.808Z,22.60
2022-11-12T00:04:33.245Z,22.70
2022-11-12T00:06:52.399Z,22.70
2022-11-12T00:09:11.933Z,22.80
2022-11-12T00:11:30.770Z,22.80
2022-11-12T00:13:49.999Z,22.80
2022-11-12T00:16:11.263Z,22.90
2022-11-12T00:18:30.526Z,23.00
2022-11-12T00:20:49.484Z,23.00
2022-11-12T00:23:09.160Z,23.10
2022-11-12T00:25:28.326Z,23.20
2022-11-12T00:27:47.635Z,23.20
2022-11-12T00:30:07.633Z,23.30
2022-11-12T00:32:28.725Z,23.30
2022-11-12T00:34:47.835Z,23.40
2022-11-12T00:37:07.614Z,23.50
2022-11-12T00:39:26.571Z,23.60
2022-11-12T00:41:45.888Z,23.60
2022-11-12T00:44:04.897Z,23.70
2022-11-12T00:46:24.726Z,23.80
2022-11-12T00:48:45.578Z,23.90
2022-11-12T00:51:07.095Z,23.90
2022-11-12T00:53:26.190Z,24.00
2022-11-12T00:56:08.464Z,24.00
2022-11-12T00:58:28.083Z,24.10
2022-11-12T01:00:47.312Z,24.10
2022-11-12T01:03:06.719Z,24.20
2022-11-12T01:05:26.238Z,24.30
2022-11-12T01:07:48.386Z,24.30
2022-11-12T01:10:10.399Z,24.30
2022-11-12T01:12:33.400Z,24.40
2022-11-12T01:14:52.513Z,24.50
2022-11-12T01:17:11.930Z,24.50
2022-11-12T01:19:30.938Z,24.60
2022-11-12T01:21:50.255Z,24.60
2022-11-12T01:24:10.185Z,24.70
2022-11-12T01:26:31.090Z,24.80
2022-11-12T01:28:51.942Z,24.80
2022-11-12T01:31:18.478Z,24.90
2022-11-12T01:33:37.690Z,25.00
2022-11-12T01:36:01.462Z,25.10
2022-11-12T01:38:20.470Z,25.20
2022-11-12T01:40:39.688Z,25.20
2022-11-12T01:42:58.845Z,25.30
2022-11-12T01:45:19.905Z,25.40
2022-11-12T01:47:39.321Z,25.50
2022-11-12T01:50:02.273Z,25.60
2022-11-12T01:52:24.351Z,25.70
2022-11-12T01:54:44.487Z,25.80
2022-11-12T01:57:04.674Z,25.80
2022-11-12T01:59:28.343Z,25.90
2022-11-12T02:01:49.552Z,26.00
2022-11-12T02:04:09.022Z,26.00
2022-11-12T02:06:29.106Z,26.10
2022-11-12T02:08:50.470Z,26.20
2022-11-12T02:11:16.866Z,26.20
2022-11-12T02:13:52.195Z,26.30
2022-11-12T02:16:13.607Z,26.30
2022-11-12T02:18:34.410Z,26.40
2022-11-12T02:20:58.742Z,26.50
2022-11-12T02:23:19.799Z,26.60
2022-11-12T02:25:39.323Z,26.70
2022-11-12T02:27:59.867Z,26.80
2022-11-12T02:30:19.027Z,26.80
2022-11-12T02:32:38.447Z,26.90
2022-11-12T02:34:57.661Z,27.00
2022-11-12T02:37:17.080Z,27.00
2022-11-12T02:39:38.142Z,27.10
2022-11-12T02:41:57.554Z,27.10
2022-11-12T02:44:16.356Z,27.10
2022-11-12T02:46:35.620Z,27.20
2022-11-12T02:48:54.528Z,27.30
2022-11-12T02:51:13.846Z,27.30
2022-11-12T02:53:33.519Z,27.40
2022-11-12T02:55:54.884Z,27.40
2022-11-12T02:58:13.994Z,27.50
2022-11-12T03:00:33.310Z,27.60
2022-11-12T03:03:00.050Z,27.70
2022-11-12T03:05:19.469Z,27.70
2022-11-12T03:07:38.431Z,27.80
2022-11-12T03:09:57.692Z,27.90
2022-11-12T03:12:18.700Z,28.00
2022-11-12T03:14:38.222Z,28.00
2022-11-12T03:16:57.563Z,28.10
2022-11-12T03:19:17.107Z,28.20
2022-11-12T03:21:36.740Z,28.20
2022-11-12T03:23:56.149Z,28.30
2022-11-12T03:26:15.526Z,28.40
2022-11-12T03:28:36.940Z,28.50
2022-11-12T03:30:59.989Z,28.50
2022-11-12T03:33:19.103Z,28.60
2022-11-12T03:35:38.822Z,28.60
2022-11-12T03:37:58.241Z,28.70
2022-11-12T03:40:17.916Z,28.80
2022-11-12T03:42:37.233Z,28.80
2022-11-12T03:44:59.264Z,29.00
2022-11-12T03:47:18.627Z,29.00
2022-11-12T03:49:38.253Z,29.10
2022-11-12T03:51:57.414Z,29.20
2022-11-12T03:54:17.042Z,29.30
2022-11-12T03:56:36.404Z,29.40
2022-11-12T03:58:55.774Z,29.50
2022-11-12T04:01:16.858Z,29.50
2022-11-12T04:03:36.659Z,29.60
2022-11-12T04:06:12.357Z,29.70
2022-11-12T04:08:40.735Z,29.70
2022-11-12T04:10:59.951Z,29.80
2022-11-12T04:13:31.966Z,29.80
2022-11-12T04:16:11.863Z,29.90
2022-11-12T04:18:49.317Z,30.00
2022-11-12T04:21:25.113Z,30.10
2022-11-12T04:23:44.637Z,30.20
2022-11-12T04:26:26.122Z,30.20
2022-11-12T04:29:05.805Z,30.30
2022-11-12T04:31:23.645Z,30.30
2022-11-12T04:33:44.645Z,30.30
2022-11-12T04:36:03.908Z,30.30
2022-11-12T04:38:23.756Z,30.40
2022-11-12T04:40:59.604Z,30.40
2022-11-12T04:43:37.602Z,30.50
2022-11-12T04:45:58.043Z,30.50
2022-11-12T04:48:17.301Z,30.60
2022-11-12T04:50:39.587Z,30.60
2022-11-12T04:52:57.931Z,30.60
2022-11-12T04:55:17.555Z,30.60
2022-11-12T04:57:36.871Z,30.60
2022-11-12T04:59:56.448Z,30.70
2022-11-12T05:02:16.069Z,30.70
2022-11-12T05:04:35.645Z,30.80
2022-11-12T05:06:57.194Z,30.90
2022-11-12T05:09:16.730Z,31.00
2022-11-12T05:11:36.044Z,31.00
2022-11-12T05:13:55.628Z,31.10
2022-11-12T05:16:15.146Z,31.10
2022-11-12T05:18:34.721Z,31.10
2022-11-12T05:20:56.220Z,31.10
2022-11-12T05:23:17.384Z,31.10
2022-11-12T05:25:36.859Z,31.10
2022-11-12T05:27:56.222Z,31.10
2022-11-12T05:30:16.665Z,31.10
2022-11-12T05:32:35.933Z,31.20
2022-11-12T05:34:55.400Z,31.20
2022-11-12T05:37:18.452Z,31.20
2022-11-12T05:39:39.767Z,31.30
2022-11-12T05:42:12.480Z,31.40
2022-11-12T05:44:32.996Z,31.40
2022-11-12T05:46:53.120Z,31.40
2022-11-12T05:49:12.910Z,31.50
2022-11-12T05:51:32.277Z,31.50
2022-11-12T05:53:51.899Z,31.60
2022-11-12T05:56:13.730Z,31.50
2022-11-12T05:58:34.006Z,31.40
2022-11-12T06:00:53.326Z,31.30
2022-11-12T06:03:13.817Z,31.40
2022-11-12T06:05:32.940Z,31.50
2022-11-12T06:07:52.605Z,31.50
2022-11-12T06:10:17.482Z,31.50
2022-11-12T06:12:41.584Z,31.60
2022-11-12T06:15:00.791Z,31.60
2022-11-12T06:17:20.465Z,31.60
2022-11-12T06:19:39.637Z,31.60
2022-11-12T06:21:59.315Z,31.70
2022-11-12T06:24:18.520Z,31.70
2022-11-12T06:26:39.112Z,31.80
2022-11-12T06:29:00.886Z,31.80
2022-11-12T06:31:21.443Z,31.90
2022-11-12T06:33:40.977Z,31.90
2022-11-12T06:36:05.649Z,31.80
2022-11-12T06:38:25.240Z,31.70
2022-11-12T06:40:45.517Z,31.80
2022-11-12T06:43:04.665Z,31.80
2022-11-12T06:45:25.877Z,31.80
2022-11-12T06:47:44.989Z,31.80
2022-11-12T06:50:05.331Z,31.80
2022-11-12T06:52:24.499Z,31.80
2022-11-12T06:54:44.073Z,31.90
2022-11-12T06:57:03.285Z,31.90
2022-11-12T06:59:22.946Z,32.00
2022-11-12T07:01:43.936Z,31.90
2022-11-12T07:04:03.783Z,32.00
2022-11-12T07:06:23.462Z,32.10
2022-11-12T07:08:43.556Z,32.10
2022-11-12T07:11:03.629Z,32.10
2022-11-12T07:13:23.251Z,32.10
2022-11-12T07:15:42.581Z,32.20
2022-11-12T07:18:04.144Z,32.20
2022-11-12T07:20:23.356Z,32.20
2022-11-12T07:22:42.923Z,32.20
2022-11-12T07:25:02.094Z,32.20
2022-11-12T07:27:21.707Z,32.20
2022-11-12T07:29:48.941Z,32.20
2022-11-12T07:32:09.109Z,32.20
2022-11-12T07:34:30.205Z,32.10
2022-11-12T07:36:52.551Z,32.10
2022-11-12T07:39:11.761Z,32.10
2022-11-12T07:41:31.530Z,32.10
2022-11-12T07:43:52.551Z,32.10
2022-11-12T07:46:14.515Z,32.10
2022-11-12T07:48:34.905Z,32.10
2022-11-12T07:50:56.334Z,32.00
2022-11-12T07:53:15.648Z,32.00
2022-11-12T07:55:35.313Z,32.00
2022-11-12T07:57:54.641Z,32.00
2022-11-12T08:00:15.487Z,32.00
2022-11-12T08:02:34.857Z,32.10
2022-11-12T08:04:54.381Z,32.00
2022-11-12T08:07:15.481Z,32.00
2022-11-12T08:09:35.356Z,32.00
2022-11-12T08:11:54.572Z,32.00
2022-11-12T08:14:14.194Z,31.90
2022-11-12T08:16:33.564Z,31.90
2022-11-12T08:18:53.183Z,31.90
2022-11-12T08:21:15.785Z,31.90
2022-11-12T08:23:37.258Z,31.90
2022-11-12T08:25:56.563Z,31.80
2022-11-12T08:28:16.032Z,31.80
2022-11-12T08:30:35.560Z,31.70
2022-11-12T08:33:00.765Z,31.70
2022-11-12T08:35:20.377Z,31.70
2022-11-12T08:37:40.566Z,31.70
2022-11-12T08:40:01.582Z,31.70
2022-11-12T08:42:21.205Z,31.60
2022-11-12T08:44:40.358Z,31.60
2022-11-12T08:47:00.593Z,31.60
2022-11-12T08:49:19.662Z,31.50
2022-11-12T08:51:39.226Z,31.50
2022-11-12T08:53:58.491Z,31.50
2022-11-12T08:56:20.005Z,31.50
2022-11-12T08:58:39.075Z,31.50
2022-11-12T09:00:59.769Z,31.40
2022-11-12T09:03:21.800Z,31.40
2022-11-12T09:05:41.830Z,31.40
2022-11-12T09:08:05.828Z,31.40
2022-11-12T09:10:25.375Z,31.30
2022-11-12T09:12:46.435Z,31.30
2022-11-12T09:15:36.443Z,31.30
2022-11-12T09:17:45.648Z,31.30
2022-11-12T09:20:04.922Z,31.20
2022-11-12T09:22:24.176Z,31.20
2022-11-12T09:24:43.804Z,31.20
2022-11-12T09:27:02.923Z,31.20
2022-11-12T09:29:24.134Z,31.20
2022-11-12T09:31:43.283Z,31.10
2022-11-12T09:34:03.013Z,31.10
2022-11-12T09:36:22.237Z,31.10
2022-11-12T09:38:42.411Z,31.10
2022-11-12T09:41:25.792Z,31.10
2022-11-12T09:43:51.711Z,31.00
2022-11-12T09:46:28.818Z,31.00
2022-11-12T09:48:53.245Z,30.90
2022-11-12T09:51:20.936Z,30.90
2022-11-12T09:53:56.536Z,30.90
2022-11-12T09:56:17.897Z,30.80
2022-11-12T09:58:38.193Z,30.80
2022-11-12T10:01:00.367Z,30.70
2022-11-12T10:03:34.892Z,30.70
2022-11-12T10:06:01.225Z,30.60
2022-11-12T10:08:41.838Z,30.50
2022-11-12T10:11:15.234Z,30.50
2022-11-12T10:13:48.786Z,30.40
2022-11-12T10:16:40.414Z,30.40
2022-11-12T10:19:29.528Z,30.40
2022-11-12T10:21:56.422Z,30.30
2022-11-12T10:24:15.902Z,30.30
2022-11-12T10:26:36.438Z,30.30
2022-11-12T10:29:01.283Z,30.20
2022-11-12T10:31:22.346Z,30.10
2022-11-12T10:33:41.566Z,30.10
2022-11-12T10:36:21.722Z,30.00
2022-11-12T10:38:41.895Z,30.00
2022-11-12T10:41:01.113Z,30.00
2022-11-12T10:43:28.054Z,29.90
2022-11-12T10:45:48.040Z,29.80
2022-11-12T10:48:07.913Z,29.80
2022-11-12T10:50:32.718Z,29.70
2022-11-12T10:53:02.478Z,29.70
2022-11-12T10:55:24.964Z,29.60
2022-11-12T10:57:44.377Z,29.60
2022-11-12T11:00:20.919Z,29.50
2022-11-12T11:02:40.534Z,29.50
2022-11-12T11:05:00.142Z,29.30
2022-11-12T11:07:25.915Z,29.20
2022-11-12T11:09:59.056Z,29.20
2022-11-12T11:12:28.815Z,29.10
2022-11-12T11:14:47.931Z,29.00
2022-11-12T11:17:11.037Z,28.90
2022-11-12T11:19:36.030Z,28.90
2022-11-12T11:22:10.816Z,28.90
2022-11-12T11:24:57.313Z,28.80
2022-11-12T11:27:28.415Z,28.70
2022-11-12T11:30:11.227Z,28.50
2022-11-12T11:32:55.168Z,28.50
2022-11-12T11:35:23.849Z,28.40
2022-11-12T11:37:52.315Z,28.30
2022-11-12T11:40:27.372Z,28.30
2022-11-12T11:43:16.635Z,28.20
2022-11-12T11:45:48.236Z,28.10
2022-11-12T11:48:15.601Z,28.10
2022-11-12T11:50:38.797Z,28.00
2022-11-12T11:53:09.026Z,28.00
2022-11-12T11:55:48.868Z,27.90
2022-11-12T11:58:21.496Z,27.90
2022-11-12T12:00:50.595Z,27.90
2022-11-12T12:03:20.546Z,27.80
2022-11-12T12:05:46.786Z,27.80
2022-11-12T12:08:09.588Z,27.80
2022-11-12T12:11:01.206Z,27.70
2022-11-12T12:13:21.855Z,27.70
2022-11-12T12:15:55.817Z,27.70
2022-11-12T12:18:28.431Z,27.60
2022-11-12T12:20:56.369Z,27.60
2022-11-12T12:23:22.740Z,27.60
2022-11-12T12:25:44.515Z,27.60
2022-11-12T12:28:08.028Z,27.50
2022-11-12T12:30:29.701Z,27.50
2022-11-12T12:32:53.222Z,27.40
2022-11-12T12:35:23.230Z,27.40
2022-11-12T12:37:46.029Z,27.30
2022-11-12T12:40:15.174Z,27.30
2022-11-12T12:42:41.046Z,27.20
2022-11-12T12:45:05.892Z,27.20
2022-11-12T12:47:27.000Z,27.10
2022-11-12T12:49:49.698Z,27.10
2022-11-12T12:52:09.165Z,27.10
2022-11-12T12:54:59.251Z,27.00
2022-11-12T12:57:36.897Z,27.00
2022-11-12T13:00:29.775Z,26.90
2022-11-12T13:02:51.267Z,26.90
2022-11-12T13:05:25.331Z,26.80
2022-11-12T13:07:47.462Z,26.80
2022-11-12T13:10:20.150Z,26.70
2022-11-12T13:13:07.053Z,26.70
2022-11-12T13:15:45.728Z,26.60
2022-11-12T13:18:16.914Z,26.60
2022-11-12T13:20:42.695Z,26.50
2022-11-12T13:23:01.952Z,26.50
2022-11-12T13:25:32.020Z,26.40
2022-11-12T13:28:24.547Z,26.40
2022-11-12T13:31:05.181Z,26.40
2022-11-12T13:33:32.329Z,26.30
2022-11-12T13:35:51.594Z,26.30
2022-11-12T13:38:17.621Z,26.30
2022-11-12T13:40:59.105Z,26.20
2022-11-12T13:43:32.355Z,26.20
2022-11-12T13:45:57.039Z,26.20
2022-11-12T13:48:20.919Z,26.20
2022-11-12T13:50:42.335Z,26.10
2022-11-12T13:53:03.076Z,26.00
2022-11-12T13:55:24.658Z,26.00
2022-11-12T13:57:44.117Z,26.00
2022-11-12T14:00:22.786Z,26.00
2022-11-12T14:02:47.229Z,26.00
2022-11-12T14:05:06.742Z,25.90
2022-11-12T14:07:43.824Z,25.90
2022-11-12T14:10:11.136Z,25.90
2022-11-12T14:12:45.139Z,25.90
2022-11-12T14:15:26.984Z,25.90
2022-11-12T14:17:51.418Z,25.80
2022-11-12T14:20:28.248Z,25.70
2022-11-12T14:22:49.880Z,25.70
2022-11-12T14:25:18.616Z,25.60
2022-11-12T14:27:39.261Z,25.50
2022-11-12T14:30:15.166Z,25.50
2022-11-12T14:32:40.000Z,25.50
2022-11-12T14:34:59.215Z,25.50
2022-11-12T14:37:43.055Z,25.50
2022-11-12T14:40:05.150Z,25.50
2022-11-12T14:42:24.968Z,25.40
2022-11-12T14:44:44.689Z,25.40
2022-11-12T14:47:05.543Z,25.40
2022-11-12T14:49:31.310Z,25.40
2022-11-12T14:51:53.603Z,25.30
2022-11-12T14:54:19.676Z,25.30
2022-11-12T14:56:45.644Z,25.30
2022-11-12T14:59:05.785Z,25.30
2022-11-12T15:02:08.792Z,25.30
2022-11-12T15:04:22.914Z,25.20
2022-11-12T15:06:42.626Z,25.20
2022-11-12T15:09:02.724Z,25.20
2022-11-12T15:11:27.978Z,25.20
2022-11-12T15:13:50.314Z,25.20
2022-11-12T15:16:11.268Z,25.20
2022-11-12T15:18:32.329Z,25.20
2022-11-12T15:21:13.353Z,25.20
2022-11-12T15:23:33.436Z,25.20
2022-11-12T15:26:02.069Z,25.20
2022-11-12T15:28:26.710Z,25.20
2022-11-12T15:31:04.261Z,25.20
2022-11-12T15:33:26.846Z,25.10
2022-11-12T15:35:47.189Z,25.00
2022-11-12T15:38:09.742Z,25.00
2022-11-12T15:40:28.942Z,25.10
2022-11-12T15:42:49.847Z,25.10
2022-11-12T15:45:16.533Z,25.10
2022-11-12T15:47:37.805Z,25.00
2022-11-12T15:49:57.995Z,24.90
2022-11-12T15:52:17.556Z,24.90
2022-11-12T15:54:40.874Z,24.80
2022-11-12T15:57:00.553Z,24.80
2022-11-12T15:59:21.460Z,24.80
2022-11-12T16:01:40.707Z,24.80
2022-11-12T16:04:02.435Z,24.80
2022-11-12T16:06:21.697Z,24.80
2022-11-12T16:08:41.218Z,24.80
2022-11-12T16:11:00.789Z,24.80
2022-11-12T16:13:24.143Z,24.70
2022-11-12T16:15:43.577Z,24.60
2022-11-12T16:18:03.704Z,24.50
2022-11-12T16:20:27.371Z,24.50
2022-11-12T16:22:47.101Z,24.50
2022-11-12T16:25:06.311Z,24.60
2022-11-12T16:27:25.783Z,24.50
2022-11-12T16:29:45.047Z,24.50
2022-11-12T16:32:04.464Z,24.50
2022-11-12T16:34:23.729Z,24.50
2022-11-12T16:36:45.604Z,24.50
2022-11-12T16:39:04.756Z,24.50
2022-11-12T16:41:24.289Z,24.40
2022-11-12T16:43:43.552Z,24.40
2022-11-12T16:46:02.920Z,24.40
2022-11-12T16:48:23.771Z,24.40
2022-11-12T16:50:43.447Z,24.40
2022-11-12T16:53:04.098Z,24.30
2022-11-12T16:55:23.924Z,24.20
2022-11-12T16:57:43.901Z,24.20
2022-11-12T17:00:03.120Z,24.20
2022-11-12T17:02:22.133Z,24.10
2022-11-12T17:04:41.493Z,24.00
2022-11-12T17:07:01.025Z,24.00
2022-11-12T17:09:21.866Z,24.00
2022-11-12T17:11:41.285Z,24.10
2022-11-12T17:14:00.294Z,24.10
2022-11-12T17:16:19.713Z,24.10
2022-11-12T17:18:39.027Z,24.10
2022-11-12T17:20:58.344Z,24.10
2022-11-12T17:23:17.866Z,24.10
2022-11-12T17:25:38.768Z,24.10
2022-11-12T17:27:57.778Z,24.10
2022-11-12T17:30:17.661Z,24.10
2022-11-12T17:32:36.921Z,24.10
2022-11-12T17:34:56.546Z,24.10
2022-11-12T17:37:16.322Z,24.00
2022-11-12T17:39:35.637Z,24.00
2022-11-12T17:41:56.954Z,24.00
2022-11-12T17:44:19.853Z,23.90
2022-11-12T17:46:38.810Z,23.90
2022-11-12T17:48:59.394Z,23.70
2022-11-12T17:51:22.506Z,23.70
2022-11-12T17:53:43.509Z,23.70
2022-11-12T17:56:04.773Z,23.80
2022-11-12T17:58:26.444Z,23.80
2022-11-12T18:00:46.392Z,23.90
2022-11-12T18:03:06.458Z,23.90
2022-11-12T18:05:25.934Z,23.90
2022-11-12T18:07:45.859Z,23.80
2022-11-12T18:10:05.382Z,23.80
2022-11-12T18:12:25.263Z,23.80
2022-11-12T18:14:46.523Z,23.80
2022-11-12T18:17:06.558Z,23.80
2022-11-12T18:19:25.978Z,23.80
2022-11-12T18:21:46.010Z,23.70
2022-11-12T18:24:05.172Z,23.70
2022-11-12T18:26:25.051Z,23.60
2022-11-12T18:28:44.526Z,23.60
2022-11-12T18:31:07.372Z,23.60
2022-11-12T18:33:26.590Z,23.70
2022-11-12T18:35:46.053Z,23.80
2022-11-12T18:38:05.062Z,23.70
2022-11-12T18:40:25.402Z,23.70
2022-11-12T18:42:44.616Z,23.80
2022-11-12T18:45:04.088Z,23.70
2022-11-12T18:47:25.042Z,23.70
2022-11-12T18:49:44.765Z,23.80
2022-11-12T18:52:04.287Z,23.70
2022-11-12T18:54:25.345Z,23.60
2022-11-12T18:56:44.506Z,23.50
2022-11-12T18:59:03.722Z,23.50
2022-11-12T19:01:24.685Z,23.50
2022-11-12T19:03:45.782Z,23.50
2022-11-12T19:06:05.512Z,23.50
2022-11-12T19:08:24.721Z,23.40
2022-11-12T19:10:43.628Z,23.40
2022-11-12T19:13:05.404Z,23.30
2022-11-12T19:15:26.720Z,23.30
2022-11-12T19:17:45.621Z,23.30
2022-11-12T19:20:06.527Z,23.30
2022-11-12T19:22:25.895Z,23.30
2022-11-12T19:24:45.055Z,23.30
2022-11-12T19:27:04.013Z,23.30
2022-11-12T19:29:23.534Z,23.20
2022-11-12T19:31:42.796Z,23.20
2022-11-12T19:34:02.267Z,23.30
2022-11-12T19:36:24.915Z,23.30
2022-11-12T19:38:44.484Z,23.30
2022-11-12T19:41:07.476Z,23.30
2022-11-12T19:43:26.804Z,23.30
2022-11-12T19:45:45.763Z,23.20
2022-11-12T19:48:05.435Z,23.10
2022-11-12T19:50:24.967Z,23.10
2022-11-12T19:52:46.319Z,23.20
2022-11-12T19:55:05.226Z,23.10
2022-11-12T19:57:24.647Z,23.00
2022-11-12T19:59:43.603Z,23.00
2022-11-12T20:02:02.939Z,23.00
2022-11-12T20:04:24.395Z,22.90
2022-11-12T20:06:43.868Z,22.90
2022-11-12T20:09:04.963Z,22.90
2022-11-12T20:11:24.383Z,22.90
2022-11-12T20:13:43.496Z,23.00
2022-11-12T20:16:02.760Z,23.00
2022-11-12T20:18:21.868Z,23.00
2022-11-12T20:20:41.390Z,22.90
2022-11-12T20:23:00.553Z,23.00
2022-11-12T20:25:21.658Z,23.00
2022-11-12T20:27:40.974Z,23.00
2022-11-12T20:30:00.708Z,23.00
2022-11-12T20:32:20.173Z,22.90
2022-11-12T20:34:39.897Z,22.90
2022-11-12T20:36:59.316Z,23.00
2022-11-12T20:39:19.196Z,23.00
2022-11-12T20:41:40.302Z,23.00
2022-11-12T20:44:01.362Z,23.10
2022-11-12T20:46:20.583Z,23.10
2022-11-12T20:48:43.497Z,23.10
2022-11-12T20:51:23.079Z,23.10
2022-11-12T20:53:44.174Z,23.10
2022-11-12T20:56:09.896Z,23.10
2022-11-12T20:58:33.008Z,23.00
2022-11-12T21:00:53.589Z,23.00
2022-11-12T21:03:13.220Z,23.00
2022-11-12T21:05:32.384Z,23.00
2022-11-12T21:07:51.911Z,23.00
2022-11-12T21:10:12.037Z,22.90
2022-11-12T21:12:31.516Z,22.90
2022-11-12T21:14:52.457Z,22.80
2022-11-12T21:17:11.885Z,22.70
2022-11-12T21:19:31.100Z,22.60
2022-11-12T21:21:50.557Z,22.60
2022-11-12T21:24:10.548Z,22.50
2022-11-12T21:26:30.067Z,22.60
2022-11-12T21:28:50.015Z,22.60
2022-11-12T21:31:13.309Z,22.60
2022-11-12T21:33:32.526Z,22.80
2022-11-12T21:35:56.188Z,22.70
2022-11-12T21:38:15.403Z,22.70
2022-11-12T21:40:34.825Z,22.70
2022-11-12T21:42:54.137Z,22.70
2022-11-12T21:45:15.243Z,22.70
2022-11-12T21:47:36.347Z,22.60
2022-11-12T21:49:55.918Z,22.60
2022-11-12T21:52:15.593Z,22.60
2022-11-12T21:54:35.126Z,22.70
2022-11-12T21:56:54.389Z,22.70
2022-11-12T21:59:13.951Z,22.70
2022-11-12T22:01:35.270Z,22.70
2022-11-12T22:03:57.504Z,22.60
2022-11-12T22:06:17.082Z,22.60
2022-11-12T22:08:36.953Z,22.50
2022-11-12T22:10:56.420Z,22.60
2022-11-12T22:13:31.016Z,22.60
2022-11-12T22:15:51.695Z,22.60
2022-11-12T22:18:11.010Z,22.60
2022-11-12T22:20:32.324Z,22.50
2022-11-12T22:22:51.490Z,22.40
2022-11-12T22:25:11.527Z,22.30
2022-11-12T22:27:32.427Z,22.30
2022-11-12T22:29:52.964Z,22.40
2022-11-12T22:32:12.181Z,22.40
2022-11-12T22:34:31.801Z,22.40
2022-11-12T22:36:52.911Z,22.50
2022-11-12T22:39:12.685Z,22.50
2022-11-12T22:41:33.600Z,22.50
2022-11-12T22:43:53.774Z,22.60
2022-11-12T22:46:15.660Z,22.60
2022-11-12T22:48:35.336Z,22.60
2022-11-12T22:50:54.620Z,22.60
2022-11-12T22:53:15.852Z,22.60
2022-11-12T22:55:35.424Z,22.50
2022-11-12T22:57:54.895Z,22.40
2022-11-12T23:00:15.851Z,22.40
2022-11-12T23:02:37.264Z,22.30
2022-11-12T23:04:56.437Z,22.30
2022-11-12T23:07:15.908Z,22.30
2022-11-12T23:09:37.015Z,22.30
2022-11-12T23:11:56.681Z,22.30
2022-11-12T23:14:15.996Z,22.30
2022-11-12T23:16:36.399Z,22.30
2022-11-12T23:18:56.636Z,22.20
2022-11-12T23:21:17.785Z,22.20
2022-11-12T23:23:38.176Z,22.10
2022-11-12T23:26:04.303Z,22.00
2022-11-12T23:28:23.772Z,22.00
2022-11-12T23:30:43.037Z,22.10
2022-11-12T23:33:02.763Z,22.10
2022-11-12T23:35:21.872Z,22.10
2022-11-12T23:37:41.648Z,22.20
2022-11-12T23:40:00.914Z,22.20
2022-11-12T23:42:22.228Z,22.20
2022-11-12T23:44:41.652Z,22.30
2022-11-12T23:47:01.120Z,22.30
2022-11-12T23:49:20.125Z,22.30
2022-11-12T23:51:39.849Z,22.30
2022-11-12T23:53:59.116Z,22.30
2022-11-12T23:56:20.386Z,22.30
2022-11-12T23:58:42.305Z,22.30
